createdAt,value
2022-12-05T00:01:46.068Z,35.63
2022-12-05T00:04:15.578Z,34.47
2022-12-05T00:06:43.681Z,32.38
2022-12-05T00:09:13.885Z,36.38
2022-12-05T00:11:43.982Z,36.63
2022-12-05T00:14:13.192Z,44.75
2022-12-05T00:16:43.392Z,34.58
2022-12-05T00:19:15.207Z,35.92
2022-12-05T00:21:43.487Z,37.13
2022-12-05T00:24:14.317Z,35.55
2022-12-05T00:26:42.370Z,29.67
2022-12-05T00:29:10.136Z,32.65
2022-12-05T00:31:37.864Z,36.13
2022-12-05T00:34:05.534Z,31.35
2022-12-05T00:36:36.256Z,32.72
2022-12-05T00:39:07.451Z,32.05
2022-12-05T00:41:35.150Z,32.72
2022-12-05T00:44:03.868Z,32.58
2022-12-05T00:46:33.474Z,30.85
2022-12-05T00:49:02.616Z,30.13
2022-12-05T00:51:32.693Z,29.80
2022-12-05T00:54:04.648Z,27.13
2022-12-05T00:56:33.706Z,29.05
2022-12-05T00:59:02.778Z,37.55
2022-12-05T01:01:33.590Z,29.73
2022-12-05T01:04:04.032Z,30.55
2022-12-05T01:06:31.711Z,30.00
2022-12-05T01:09:01.132Z,33.55
2022-12-05T01:11:30.112Z,37.80
2022-12-05T01:13:58.031Z,33.13
2022-12-05T01:16:28.281Z,34.80
2022-12-05T01:18:56.105Z,35.35
2022-12-05T01:21:24.324Z,30.20
2022-12-05T01:23:52.193Z,29.10
2022-12-05T01:26:23.528Z,29.52
2022-12-05T01:28:52.092Z,31.80
2022-12-05T01:31:23.850Z,26.05
2022-12-05T01:33:52.556Z,28.17
2022-12-05T01:36:22.852Z,30.85
2022-12-05T01:38:51.003Z,30.25
2022-12-05T01:41:22.999Z,33.20
2022-12-05T01:43:58.595Z,30.13
2022-12-05T01:46:27.896Z,32.13
2022-12-05T01:49:02.306Z,28.58
2022-12-05T01:51:31.586Z,26.10
2022-12-05T01:54:00.648Z,29.98
2022-12-05T01:56:29.973Z,24.95
2022-12-05T01:58:58.004Z,32.58
2022-12-05T02:01:25.735Z,25.13
2022-12-05T02:03:57.100Z,25.38
2022-12-05T02:06:25.979Z,24.38
2022-12-05T02:08:54.712Z,26.00
2022-12-05T02:11:24.289Z,26.17
2022-12-05T02:14:06.675Z,26.90
2022-12-05T02:16:47.108Z,25.67
2022-12-05T02:19:40.207Z,25.60
2022-12-05T02:22:36.164Z,29.60
2022-12-05T02:25:33.113Z,30.15
2022-12-05T02:28:34.499Z,24.67
2022-12-05T02:31:11.649Z,26.10
2022-12-05T02:33:46.584Z,27.08
2022-12-05T02:36:19.268Z,29.92
2022-12-05T02:38:55.085Z,28.08
2022-12-05T02:41:28.951Z,30.40
2022-12-05T02:44:00.806Z,27.73
2022-12-05T02:46:32.266Z,32.05
2022-12-05T02:49:03.613Z,30.48
2022-12-05T02:51:34.738Z,29.40
2022-12-05T02:54:06.367Z,39.08
2022-12-05T02:56:35.707Z,28.23
2022-12-05T02:59:04.244Z,37.95
2022-12-05T03:01:33.782Z,39.53
2022-12-05T03:04:04.481Z,35.38
2022-12-05T03:06:35.822Z,30.48
2022-12-05T03:09:07.755Z,38.67
2022-12-05T03:11:41.625Z,30.95
2022-12-05T03:14:16.825Z,32.22
2022-12-05T03:16:50.849Z,26.40
2022-12-05T03:19:25.751Z,32.85
2022-12-05T03:21:58.417Z,31.40
2022-12-05T03:24:26.467Z,32.05
2022-12-05T03:27:02.735Z,31.13
2022-12-05T03:29:37.060Z,29.63
2022-12-05T03:32:11.879Z,31.25
2022-12-05T03:34:56.579Z,33.88
2022-12-05T03:37:31.510Z,34.42
2022-12-05T03:40:07.649Z,32.75
2022-12-05T03:42:40.395Z,31.13
2022-12-05T03:45:12.221Z,29.17
2022-12-05T03:47:50.006Z,28.17
2022-12-05T03:50:23.669Z,28.50
2022-12-05T03:53:19.137Z,35.30
2022-12-05T03:55:50.262Z,31.73
2022-12-05T03:58:25.099Z,32.22
2022-12-05T04:00:55.251Z,32.60
2022-12-05T04:03:39.093Z,30.83
2022-12-05T04:06:14.578Z,35.25
2022-12-05T04:08:47.632Z,26.92
2022-12-05T04:11:19.626Z,28.17
2022-12-05T04:13:50.537Z,37.47
2022-12-05T04:16:39.123Z,30.08
2022-12-05T04:19:13.053Z,30.98
2022-12-05T04:21:44.821Z,31.45
2022-12-05T04:24:32.852Z,30.40
2022-12-05T04:27:10.215Z,29.63
2022-12-05T04:29:45.626Z,32.33
2022-12-05T04:32:15.815Z,27.60
2022-12-05T04:34:50.704Z,29.88
2022-12-05T04:37:24.478Z,25.80
2022-12-05T04:39:56.785Z,33.45
2022-12-05T04:42:27.958Z,31.45
2022-12-05T04:45:01.052Z,31.70
2022-12-05T04:47:32.667Z,28.95
2022-12-05T04:50:03.785Z,28.80
2022-12-05T04:52:32.694Z,27.60
2022-12-05T04:55:06.355Z,27.90
2022-12-05T04:57:38.860Z,29.50
2022-12-05T05:00:09.327Z,27.80
2022-12-05T05:02:43.576Z,30.05
2022-12-05T05:05:16.446Z,24.67
2022-12-05T05:07:46.165Z,25.08
2022-12-05T05:10:17.357Z,24.92
2022-12-05T05:12:45.278Z,28.27
2022-12-05T05:15:12.986Z,26.95
2022-12-05T05:17:40.637Z,24.85
2022-12-05T05:20:28.008Z,27.88
2022-12-05T05:22:59.275Z,23.83
2022-12-05T05:25:27.449Z,32.25
2022-12-05T05:27:56.472Z,25.40
2022-12-05T05:30:26.042Z,25.90
2022-12-05T05:32:53.764Z,28.45
2022-12-05T05:35:21.595Z,27.23
2022-12-05T05:37:49.330Z,27.77
2022-12-05T05:40:18.728Z,33.33
2022-12-05T05:42:48.173Z,29.83
2022-12-05T05:45:17.425Z,31.63
2022-12-05T05:47:45.611Z,30.13
2022-12-05T05:50:19.455Z,31.85
2022-12-05T05:52:48.752Z,34.67
2022-12-05T05:55:17.920Z,27.73
2022-12-05T05:57:45.610Z,26.90
2022-12-05T06:00:14.823Z,24.42
2022-12-05T06:02:42.664Z,27.90
2022-12-05T06:05:10.556Z,25.35
2022-12-05T06:07:38.327Z,27.08
2022-12-05T06:10:07.128Z,29.90
2022-12-05T06:12:36.241Z,28.85
2022-12-05T06:15:05.047Z,26.50
2022-12-05T06:17:33.065Z,24.10
2022-12-05T06:20:01.022Z,25.27
2022-12-05T06:22:28.938Z,25.27
2022-12-05T06:24:56.605Z,26.25
2022-12-05T06:27:24.420Z,20.67
2022-12-05T06:29:54.013Z,21.77
2022-12-05T06:32:21.646Z,21.90
2022-12-05T06:34:49.297Z,27.60
2022-12-05T06:37:16.969Z,25.20
2022-12-05T06:39:44.691Z,22.80
2022-12-05T06:42:12.378Z,22.58
2022-12-05T06:44:40.595Z,21.85
2022-12-05T06:47:09.683Z,27.60
2022-12-05T06:49:38.260Z,22.15
2022-12-05T06:52:06.245Z,25.38
2022-12-05T06:54:34.144Z,24.98
2022-12-05T06:57:01.925Z,21.80
2022-12-05T06:59:29.665Z,28.92
2022-12-05T07:01:56.487Z,24.95
2022-12-05T07:04:25.580Z,22.60
2022-12-05T07:06:55.328Z,24.50
2022-12-05T07:09:45.856Z,25.85
2022-12-05T07:12:15.028Z,23.45
2022-12-05T07:14:48.188Z,24.58
2022-12-05T07:17:17.215Z,26.23
2022-12-05T07:19:49.032Z,25.58
2022-12-05T07:22:17.139Z,25.58
2022-12-05T07:24:45.319Z,22.73
2022-12-05T07:27:14.060Z,33.17
2022-12-05T07:29:41.926Z,26.83
2022-12-05T07:32:09.919Z,21.55
2022-12-05T07:34:38.747Z,25.77
2022-12-05T07:37:08.215Z,21.30
2022-12-05T07:39:36.016Z,20.80
2022-12-05T07:42:03.782Z,23.15
2022-12-05T07:44:32.128Z,24.33
2022-12-05T07:47:00.496Z,21.17
2022-12-05T07:49:28.419Z,22.63
2022-12-05T07:51:56.109Z,20.20
2022-12-05T07:54:25.281Z,17.33
2022-12-05T07:56:53.010Z,20.27
2022-12-05T07:59:20.939Z,23.75
2022-12-05T08:01:48.731Z,21.35
2022-12-05T08:04:16.512Z,29.25
2022-12-05T08:06:44.361Z,19.10
2022-12-05T08:09:12.106Z,20.83
2022-12-05T08:11:41.254Z,20.25
2022-12-05T08:14:10.705Z,17.35
2022-12-05T08:16:38.648Z,19.73
2022-12-05T08:19:08.696Z,18.60
2022-12-05T08:21:36.500Z,19.27
2022-12-05T08:24:06.025Z,20.77
2022-12-05T08:26:35.852Z,22.30
2022-12-05T08:29:07.042Z,17.20
2022-12-05T08:31:40.458Z,20.65
2022-12-05T08:34:08.340Z,22.98
2022-12-05T08:36:36.110Z,23.40
2022-12-05T08:39:06.658Z,19.90
2022-12-05T08:41:34.666Z,20.23
2022-12-05T08:44:06.520Z,20.02
2022-12-05T08:46:37.106Z,22.52
2022-12-05T08:49:05.936Z,18.80
2022-12-05T08:51:33.697Z,20.13
2022-12-05T08:54:03.561Z,23.45
2022-12-05T08:56:32.982Z,19.63
2022-12-05T08:59:05.803Z,17.92
2022-12-05T09:01:38.637Z,25.88
2022-12-05T09:04:07.321Z,18.23
2022-12-05T09:06:36.173Z,18.00
2022-12-05T09:09:07.438Z,22.77
2022-12-05T09:11:37.515Z,19.13
2022-12-05T09:14:05.901Z,17.15
2022-12-05T09:16:38.801Z,19.23
2022-12-05T09:19:07.717Z,21.27
2022-12-05T09:21:35.420Z,19.13
2022-12-05T09:24:03.197Z,22.50
2022-12-05T09:26:31.294Z,17.35
2022-12-05T09:28:59.227Z,17.80
2022-12-05T09:31:28.249Z,14.93
2022-12-05T09:33:57.771Z,20.08
2022-12-05T09:36:27.413Z,16.42
2022-12-05T09:38:56.233Z,14.35
2022-12-05T09:41:58.052Z,18.20
2022-12-05T09:44:37.817Z,14.98
2022-12-05T09:47:13.230Z,16.65
2022-12-05T09:49:51.151Z,17.27
2022-12-05T09:52:26.435Z,14.60
2022-12-05T09:54:54.667Z,19.50
2022-12-05T09:57:33.851Z,17.33
2022-12-05T10:00:04.215Z,16.63
2022-12-05T10:02:43.966Z,12.55
2022-12-05T10:05:19.637Z,15.40
2022-12-05T10:07:58.083Z,13.77
2022-12-05T10:10:33.980Z,17.70
2022-12-05T10:13:15.939Z,9.98
2022-12-05T10:15:47.743Z,13.90
2022-12-05T10:18:28.416Z,11.50
2022-12-05T10:21:04.518Z,12.00
2022-12-05T10:26:29.525Z,16.13
2022-12-05T10:29:03.636Z,12.05
2022-12-05T10:31:36.369Z,12.23
2022-12-05T10:34:10.327Z,9.00
2022-12-05T10:36:39.462Z,11.73
2022-12-05T10:39:11.422Z,18.20
2022-12-05T10:41:39.615Z,11.98
2022-12-05T10:44:07.448Z,9.57
2022-12-05T10:46:35.321Z,16.52
2022-12-05T10:49:03.755Z,11.07
2022-12-05T10:51:37.177Z,12.45
2022-12-05T10:54:18.073Z,11.10
2022-12-05T10:56:47.517Z,9.57
2022-12-05T10:59:16.867Z,9.23
2022-12-05T11:01:49.188Z,8.30
2022-12-05T11:04:27.103Z,8.90
2022-12-05T11:07:00.906Z,9.27
2022-12-05T11:09:32.178Z,10.75
2022-12-05T11:12:18.846Z,8.82
2022-12-05T11:14:59.173Z,9.90
2022-12-05T11:17:31.625Z,8.07
2022-12-05T11:19:59.389Z,7.28
2022-12-05T11:22:36.819Z,10.50
2022-12-05T11:25:25.917Z,11.75
2022-12-05T11:27:57.123Z,11.75
2022-12-05T11:30:30.215Z,9.30
2022-12-05T11:33:19.412Z,6.95
2022-12-05T11:35:47.628Z,8.18
2022-12-05T11:38:18.047Z,6.10
2022-12-05T11:40:54.560Z,4.00
2022-12-05T11:44:02.135Z,7.93
2022-12-05T11:46:41.716Z,5.15
2022-12-05T11:49:23.837Z,5.60
2022-12-05T11:51:59.347Z,6.55
2022-12-05T11:57:59.274Z,5.38
2022-12-05T12:00:34.784Z,7.03
2022-12-05T12:03:33.377Z,4.72
2022-12-05T12:06:20.831Z,6.75
2022-12-05T12:08:57.927Z,6.80
2022-12-05T12:11:36.051Z,5.00
2022-12-05T12:14:15.344Z,6.47
2022-12-05T12:16:54.821Z,5.07
2022-12-05T12:20:00.488Z,5.43
2022-12-05T12:22:56.106Z,7.45
2022-12-05T12:25:39.411Z,6.65
2022-12-05T12:28:21.390Z,5.93
2022-12-05T12:31:03.667Z,6.40
2022-12-05T12:33:36.199Z,5.40
2022-12-05T12:36:13.715Z,6.18
2022-12-05T12:38:56.150Z,4.32
2022-12-05T12:41:43.776Z,8.38
2022-12-05T12:44:41.453Z,6.38
2022-12-05T12:47:19.025Z,7.78
2022-12-05T12:49:57.796Z,5.15
2022-12-05T12:52:31.410Z,7.32
2022-12-05T12:55:12.936Z,7.85
2022-12-05T12:57:58.760Z,6.25
2022-12-05T13:00:36.709Z,10.00
2022-12-05T13:03:12.010Z,5.07
2022-12-05T13:05:45.167Z,5.70
2022-12-05T13:08:21.138Z,6.90
2022-12-05T13:10:49.856Z,6.93
2022-12-05T13:13:21.741Z,6.35
2022-12-05T13:15:52.225Z,8.15
2022-12-05T13:18:23.875Z,5.90
2022-12-05T13:20:54.782Z,6.75
2022-12-05T13:23:25.411Z,8.52
2022-12-05T13:25:55.415Z,11.27
2022-12-05T13:28:35.293Z,6.95
2022-12-05T13:31:05.100Z,9.85
2022-12-05T13:33:37.477Z,7.95
2022-12-05T13:36:29.137Z,6.50
2022-12-05T13:39:16.444Z,8.13
2022-12-05T13:42:03.793Z,5.90
2022-12-05T13:44:37.417Z,5.38
2022-12-05T13:47:10.137Z,7.93
2022-12-05T13:49:46.577Z,5.25
2022-12-05T13:52:20.490Z,6.82
2022-12-05T13:54:55.648Z,6.35
2022-12-05T13:57:52.408Z,10.80
2022-12-05T14:00:26.398Z,5.47
2022-12-05T14:02:59.215Z,5.15
2022-12-05T14:05:48.967Z,5.18
2022-12-05T14:08:54.140Z,6.75
2022-12-05T14:11:22.247Z,6.00
2022-12-05T14:13:50.337Z,9.02
2022-12-05T14:16:44.018Z,8.50
2022-12-05T14:19:34.391Z,4.97
2022-12-05T14:22:16.954Z,16.25
2022-12-05T14:24:55.772Z,19.27
2022-12-05T14:27:40.924Z,25.73
2022-12-05T14:30:21.070Z,19.50
2022-12-05T14:32:49.245Z,26.00
2022-12-05T14:35:20.859Z,23.38
2022-12-05T14:37:55.639Z,26.27
2022-12-05T14:40:30.360Z,26.15
2022-12-05T14:43:00.743Z,20.88
2022-12-05T14:45:35.668Z,28.30
2022-12-05T14:48:06.027Z,23.33
2022-12-05T14:50:39.434Z,24.67
2022-12-05T14:53:37.657Z,24.50
2022-12-05T14:56:21.693Z,22.52
2022-12-05T14:58:57.482Z,18.60
2022-12-05T15:01:28.783Z,28.80
2022-12-05T15:04:18.762Z,24.05
2022-12-05T15:06:50.981Z,22.20
2022-12-05T15:09:48.975Z,21.60
2022-12-05T15:12:20.853Z,22.08
2022-12-05T15:14:56.196Z,25.00
2022-12-05T15:17:29.535Z,24.02
2022-12-05T15:20:04.991Z,19.00
2022-12-05T15:22:37.546Z,20.98
2022-12-05T15:25:30.233Z,24.58
2022-12-05T15:28:01.477Z,26.58
2022-12-05T15:30:32.249Z,25.23
2022-12-05T15:33:00.881Z,25.50
2022-12-05T15:35:31.934Z,25.42
2022-12-05T15:38:03.623Z,26.08
2022-12-05T15:40:37.923Z,27.55
2022-12-05T15:43:29.281Z,22.90
2022-12-05T15:46:10.867Z,20.60
2022-12-05T15:48:38.698Z,24.33
2022-12-05T15:51:08.150Z,25.73
2022-12-05T15:53:41.876Z,28.17
2022-12-05T15:56:16.091Z,27.67
2022-12-05T15:58:47.362Z,28.60
2022-12-05T16:01:21.039Z,30.65
2022-12-05T16:03:54.278Z,30.67
2022-12-05T16:06:28.772Z,26.75
2022-12-05T16:08:58.351Z,28.77
2022-12-05T16:11:27.918Z,25.85
2022-12-05T16:13:58.505Z,25.05
2022-12-05T16:16:30.337Z,25.33
2022-12-05T16:18:59.860Z,24.90
2022-12-05T16:21:38.958Z,23.05
2022-12-05T16:24:09.037Z,29.40
2022-12-05T16:26:41.875Z,28.23
2022-12-05T16:29:28.213Z,28.40
2022-12-05T16:31:57.357Z,27.40
2022-12-05T16:34:26.058Z,27.10
2022-12-05T16:36:56.065Z,24.00
2022-12-05T16:39:25.541Z,27.60
2022-12-05T16:41:55.741Z,31.55
2022-12-05T16:45:04.640Z,21.23
2022-12-05T16:47:56.258Z,27.63
2022-12-05T16:50:33.069Z,23.05
2022-12-05T16:53:15.996Z,26.63
2022-12-05T16:55:45.672Z,26.27
2022-12-05T16:58:21.187Z,25.88
2022-12-05T17:00:48.869Z,24.80
2022-12-05T17:06:05.315Z,32.42
2022-12-05T17:08:33.047Z,34.65
2022-12-05T17:11:01.897Z,28.25
2022-12-05T17:13:32.268Z,24.70
2022-12-05T17:16:00.112Z,27.83
2022-12-05T17:18:31.736Z,27.08
2022-12-05T17:21:01.922Z,24.67
2022-12-05T17:23:29.649Z,31.50
2022-12-05T17:25:59.418Z,25.45
2022-12-05T17:28:27.227Z,25.27
2022-12-05T17:30:56.466Z,28.35
2022-12-05T17:33:24.284Z,26.88
2022-12-05T17:35:52.283Z,25.67
2022-12-05T17:38:20.413Z,30.25
2022-12-05T17:40:48.652Z,29.25
2022-12-05T17:43:21.398Z,30.05
2022-12-05T17:45:52.705Z,28.80
2022-12-05T17:48:22.436Z,28.17
2022-12-05T17:50:50.498Z,24.27
2022-12-05T17:53:20.939Z,22.85
2022-12-05T17:55:49.006Z,29.02
2022-12-05T17:58:17.010Z,31.75
2022-12-05T18:00:46.683Z,29.23
2022-12-05T18:03:16.272Z,24.38
2022-12-05T18:05:46.379Z,24.45
2022-12-05T18:08:16.029Z,27.98
2022-12-05T18:10:44.937Z,23.73
2022-12-05T18:13:13.126Z,26.25
2022-12-05T18:15:43.303Z,27.52
2022-12-05T18:18:15.165Z,28.50
2022-12-05T18:20:43.272Z,22.30
2022-12-05T18:23:12.700Z,26.60
2022-12-05T18:25:41.626Z,27.00
2022-12-05T18:28:09.354Z,26.80
2022-12-05T18:30:37.122Z,28.20
2022-12-05T18:33:04.953Z,25.27
2022-12-05T18:35:41.742Z,24.05
2022-12-05T18:38:10.772Z,29.55
2022-12-05T18:40:39.872Z,27.92
2022-12-05T18:43:07.753Z,30.00
2022-12-05T18:45:35.462Z,39.20
2022-12-05T18:48:31.372Z,45.75
2022-12-05T18:50:51.216Z,36.67
2022-12-05T18:53:19.104Z,31.50
2022-12-05T18:58:36.419Z,26.05
2022-12-05T19:01:07.150Z,29.20
2022-12-05T19:03:35.162Z,29.90
2022-12-05T19:06:03.773Z,32.70
2022-12-05T19:08:31.443Z,34.50
2022-12-05T19:11:05.291Z,34.13
2022-12-05T19:13:33.050Z,32.80
2022-12-05T19:16:02.793Z,32.40
2022-12-05T19:18:30.915Z,31.67
2022-12-05T19:20:58.941Z,28.63
2022-12-05T19:23:27.323Z,30.00
2022-12-05T19:25:56.670Z,32.22
2022-12-05T19:28:25.759Z,31.00
2022-12-05T19:31:00.272Z,29.70
2022-12-05T19:33:32.153Z,31.05
2022-12-05T19:36:03.283Z,34.30
2022-12-05T19:38:33.330Z,28.60
2022-12-05T19:41:01.372Z,28.48
2022-12-05T19:43:32.004Z,31.80
2022-12-05T19:45:59.981Z,24.98
2022-12-05T19:48:27.760Z,29.20
2022-12-05T19:50:56.599Z,29.17
2022-12-05T19:53:25.088Z,27.20
2022-12-05T19:55:53.062Z,25.52
2022-12-05T19:58:20.750Z,28.75
2022-12-05T20:00:52.419Z,23.15
2022-12-05T20:03:20.365Z,34.58
2022-12-05T20:05:57.394Z,21.88
2022-12-05T20:08:25.451Z,25.60
2022-12-05T20:10:54.882Z,33.42
2022-12-05T20:13:46.377Z,22.42
2022-12-05T20:16:14.530Z,22.98
2022-12-05T20:18:42.790Z,31.23
2022-12-05T20:21:12.299Z,40.72
2022-12-05T20:23:40.090Z,33.05
2022-12-05T20:26:09.792Z,28.95
2022-12-05T20:28:37.885Z,28.50
2022-12-05T20:31:07.272Z,33.13
2022-12-05T20:33:36.573Z,26.33
2022-12-05T20:36:05.610Z,22.92
2022-12-05T20:38:33.602Z,26.40
2022-12-05T20:41:01.972Z,25.92
2022-12-05T20:43:29.991Z,27.65
2022-12-05T20:45:58.450Z,21.33
2022-12-05T20:48:27.049Z,28.23
2022-12-05T20:50:56.330Z,21.00
2022-12-05T20:53:24.085Z,24.92
2022-12-05T20:55:51.864Z,21.23
2022-12-05T20:58:19.624Z,26.75
2022-12-05T21:00:47.306Z,22.77
2022-12-05T21:03:17.392Z,21.05
2022-12-05T21:05:45.328Z,21.58
2022-12-05T21:08:14.400Z,26.88
2022-12-05T21:10:45.430Z,24.75
2022-12-05T21:13:13.157Z,21.85
2022-12-05T21:15:41.081Z,24.92
2022-12-05T21:18:08.912Z,22.52
2022-12-05T21:20:41.923Z,22.15
2022-12-05T21:23:10.922Z,23.45
2022-12-05T21:25:40.306Z,21.73
2022-12-05T21:28:08.083Z,17.20
2022-12-05T21:30:35.831Z,19.60
2022-12-05T21:33:05.671Z,21.48
2022-12-05T21:35:33.573Z,20.60
2022-12-05T21:38:02.011Z,20.83
2022-12-05T21:40:29.931Z,24.13
2022-12-05T21:42:59.026Z,22.35
2022-12-05T21:45:27.247Z,22.50
2022-12-05T21:47:54.964Z,23.65
2022-12-05T21:50:22.778Z,19.63
2022-12-05T21:52:50.537Z,26.15
2022-12-05T21:55:18.514Z,23.65
2022-12-05T21:57:46.241Z,21.88
2022-12-05T22:00:16.053Z,22.80
2022-12-05T22:02:43.789Z,23.88
2022-12-05T22:05:11.496Z,25.10
2022-12-05T22:07:39.282Z,23.20
2022-12-05T22:10:08.251Z,20.00
2022-12-05T22:12:36.033Z,24.15
2022-12-05T22:15:03.749Z,25.10
2022-12-05T22:17:32.767Z,20.30
2022-12-05T22:20:00.945Z,20.73
2022-12-05T22:22:29.107Z,17.65
2022-12-05T22:24:57.156Z,19.88
2022-12-05T22:27:25.055Z,22.05
2022-12-05T22:29:53.045Z,21.50
2022-12-05T22:32:20.902Z,22.10
2022-12-05T22:34:50.038Z,24.48
2022-12-05T22:37:17.837Z,23.83
2022-12-05T22:39:45.548Z,30.05
2022-12-05T22:42:13.290Z,20.92
2022-12-05T22:44:41.155Z,21.63
2022-12-05T22:47:09.014Z,20.75
2022-12-05T22:49:36.820Z,20.10
2022-12-05T22:52:06.099Z,22.25
2022-12-05T22:54:33.731Z,21.67
2022-12-05T22:57:01.420Z,23.42
2022-12-05T22:59:29.072Z,25.33
2022-12-05T23:01:56.752Z,21.83
2022-12-05T23:04:24.660Z,20.05
2022-12-05T23:06:52.370Z,21.55
2022-12-05T23:09:21.875Z,20.90
2022-12-05T23:11:50.581Z,21.58
2022-12-05T23:14:18.388Z,24.42
2022-12-05T23:16:46.156Z,21.85
2022-12-05T23:19:13.866Z,21.38
2022-12-05T23:21:41.822Z,20.90
2022-12-05T23:24:11.091Z,21.13
2022-12-05T23:26:42.500Z,19.95
2022-12-05T23:29:12.011Z,22.00
2022-12-05T23:31:40.158Z,19.33
2022-12-05T23:34:08.633Z,21.00
2022-12-05T23:36:36.346Z,27.73
2022-12-05T23:39:04.703Z,21.55
2022-12-05T23:41:32.437Z,20.70
2022-12-05T23:44:01.612Z,23.38
2022-12-05T23:46:29.747Z,17.55
2022-12-05T23:48:58.068Z,16.48
2022-12-05T23:51:27.942Z,15.60
2022-12-05T23:53:57.515Z,18.98
2022-12-05T23:56:27.754Z,20.30
2022-12-05T23:58:56.957Z,18.88
